PROFILE

 METAR AND TAF INFORMATION
ADDS - METARS form results

(0442 UTC 09 August 2020)
http://aviationweather.gov/metar/data/
 
LTFE 090420Z 13004KT 9999 FEW035 SCT100 BKN200 21/19 Q1004 NOSIG RMK RWY10 09003KT
LTFE 090350Z 13002KT 9999 FEW035 SCT100 BKN200 21/19 Q1004 NOSIG RMK RWY10 15001KT
TAF LTFE 082240Z 0900/0924 VRB02KT CAVOK BECMG 0906/0908 FEW035 BKN200 BECMG 0908/0910 24014KT BECMG 0915/0918 VRB02KT CAVOK 

 AIRPORT MAP

 RUNWAY INFORMATION
Runway 11 Runway length 9842 ft Runway width 148 ft
Runway elevation 9 ft Runway displaced threshold 0 ft Runway heading 107
Runway 29 Runway length 9842 ft Runway width 148 ft
Runway elevation 21 ft Runway displaced threshold 0 ft Runway heading 287

 AIRPORT FREQUENCIES
Type APP Name MENDERES A Frequency 119.5 MHZ
Type APP Name MENDERES A Frequency 119.775 MHZ
Type ATIS Name ATIS Frequency 128.5 MHZ
Type GND Name GND Frequency 121.95 MHZ
Type TWR Name TWR Frequency 120.5 MHZ

 AIRPORT NEAR NAVIGATION AIDS
Type VOR-DME Name Milas Bodrum Frequency 116700 KHZ
Type NDB Name Milas Bodrum Frequency 389 KHZ
Type VOR-DME Name Kiyikislacik Frequency 113900 KHZ